Time;durP1;ratioP1;P1;durP2;ratioP2;P2;SDS_P1;SDS_P2;PMS_P1;PMS_P2;Temp;Humidity;BMP_temperature;BMP_pressure;BME280_temperature;BME280_humidity;BME280_pressure;Samples;Min_cycle;Max_cycle;Signal;HPM_P1;HPM_P2
2022/03/27 00:02:05;;;;;;;1999.90;999.90;;;;;;;8.87;98.88;164762.34;4993800;28;20050;-67
2022/03/27 00:04:32;;;;;;;1999.90;999.90;;;;;;;9.08;98.33;164820.16;5002337;28;20109;-67
2022/03/27 00:06:59;;;;;;;1999.90;999.90;;;;;;;8.92;97.64;164776.13;4984921;28;20050;-67
2022/03/27 00:09:25;;;;;;;1999.90;999.90;;;;;;;8.44;99.94;164648.16;5004766;28;20078;-67
2022/03/27 00:11:52;;;;;;;1999.90;999.90;;;;;;;8.50;99.89;164664.72;4981653;28;20051;-67
2022/03/27 00:14:18;;;;;;;1999.90;999.90;;;;;;;9.02;97.34;164802.25;5001030;28;20085;-68
2022/03/27 00:16:45;;;;;;;1999.90;999.90;;;;;;;9.33;95.72;164886.19;4995518;28;20112;-68
2022/03/27 00:19:11;;;;;;;1999.90;999.90;;;;;;;9.02;96.83;164802.25;4996852;28;20072;-67
2022/03/27 00:21:38;;;;;;;1999.90;999.90;;;;;;;9.04;96.14;164807.78;5005619;28;20054;-68
2022/03/27 00:24:05;;;;;;;1999.90;999.90;;;;;;;8.95;95.95;164784.38;4990703;28;20054;-67
2022/03/27 00:26:32;;;;;;;1999.90;999.90;;;;;;;8.67;97.85;164710.09;5003947;28;20078;-67
2022/03/27 00:28:58;;;;;;;1999.90;999.90;;;;;;;8.54;98.70;164674.31;4991174;28;20585;-67
2022/03/27 00:31:25;;;;;;;1999.90;999.90;;;;;;;8.24;99.28;164595.88;4990460;28;20078;-67
2022/03/27 00:33:51;;;;;;;1999.90;999.90;;;;;;;8.01;100.00;164532.59;5003602;28;20063;-68
2022/03/27 00:36:18;;;;;;;1999.90;999.90;;;;;;;8.06;100.00;164547.75;4997079;28;20100;-68
2022/03/27 00:38:45;;;;;;;1999.90;999.90;;;;;;;8.48;99.60;164659.19;5008961;28;20081;-68
2022/03/27 00:41:14;;;;;;;1999.90;999.90;;;;;;;8.21;98.23;164587.63;4998754;28;20045;-67
2022/03/27 00:43:42;;;;;;;1999.90;999.90;;;;;;;8.02;100.00;164536.75;5004163;28;20523;-67
2022/03/27 00:46:08;;;;;;;1999.90;999.90;;;;;;;8.21;99.66;164586.25;5008224;28;20074;-68
2022/03/27 00:48:35;;;;;;;1999.90;999.90;;;;;;;8.16;99.71;164573.91;5001304;28;20461;-68
2022/03/27 00:51:03;;;;;;;1999.90;999.90;;;;;;;8.59;98.51;164688.06;4995062;28;20058;-68
2022/03/27 00:53:30;;;;;;;1999.90;999.90;;;;;;;8.77;96.83;164737.59;4985239;28;20508;-68
2022/03/27 00:55:57;;;;;;;1999.90;999.90;;;;;;;8.88;96.04;164765.13;4991550;28;20054;-68
2022/03/27 00:58:23;;;;;;;1999.90;999.90;;;;;;;8.52;97.54;164668.84;4993185;28;20086;-68
2022/03/27 01:01:27;;;;;;;1999.90;999.90;;;;;;;8.60;97.24;164690.81;5000606;28;20066;-68
2022/03/27 01:03:54;;;;;;;1999.90;999.90;;;;;;;8.21;99.35;164587.63;5009050;28;20077;-68
2022/03/27 01:06:39;;;;;;;1999.90;999.90;;;;;;;8.79;97.15;164743.09;5001201;28;20104;-68
2022/03/27 01:12:22;;;;;;;1999.90;999.90;;;;;;;8.49;96.36;164660.59;4992715;28;20053;-68
2022/03/27 01:14:51;;;;;;;1999.90;999.90;;;;;;;8.62;96.29;164697.72;5001708;28;20363;-68
2022/03/27 01:17:26;;;;;;;1999.90;999.90;;;;;;;8.24;98.09;164594.50;4998622;28;20125;-68
2022/03/27 01:19:55;;;;;;;1999.90;999.90;;;;;;;8.23;98.55;164591.75;4996407;28;20077;-68
2022/03/27 01:22:23;;;;;;;1999.90;999.90;;;;;;;7.93;98.94;164513.41;4997259;28;20046;-68
2022/03/27 01:24:51;;;;;;;1999.90;999.90;;;;;;;7.52;100.00;164402.06;4994537;28;20054;-68
2022/03/27 01:27:18;;;;;;;1999.90;999.90;;;;;;;7.55;100.00;164410.31;4982110;28;20439;-68
2022/03/27 01:29:45;;;;;;;1999.90;999.90;;;;;;;7.82;99.64;164483.13;4991557;28;20121;-68
2022/03/27 01:32:14;;;;;;;1999.90;999.90;;;;;;;7.93;99.65;164513.41;5007242;28;20093;-68
2022/03/27 01:34:44;;;;;;;1999.90;999.90;;;;;;;7.09;100.00;164288.00;4998832;28;20060;-68
2022/03/27 01:37:14;;;;;;;1999.90;999.90;;;;;;;7.44;100.00;164381.41;5003913;28;20132;-68
2022/03/27 01:39:41;;;;;;;1999.90;999.90;;;;;;;7.50;100.00;164396.53;4987984;28;20050;-68
2022/03/27 01:42:08;;;;;;;1999.90;999.90;;;;;;;7.85;98.66;164490.03;4993845;28;20084;-67
2022/03/27 01:44:35;;;;;;;1999.90;999.90;;;;;;;7.29;100.00;164340.19;4979794;28;20046;-67
2022/03/27 01:47:01;;;;;;;1999.90;999.90;;;;;;;7.22;98.96;164323.72;4991281;28;20054;-66
2022/03/27 01:49:29;;;;;;;1999.90;999.90;;;;;;;7.02;100.00;164268.75;4997393;28;20082;-67
2022/03/27 01:51:55;;;;;;;1999.90;999.90;;;;;;;7.21;99.07;164319.59;4986666;28;20089;-67
2022/03/27 01:54:22;;;;;;;1999.90;999.90;;;;;;;7.11;98.80;164292.09;5003879;28;20046;-67
2022/03/27 01:56:49;;;;;;;1999.90;999.90;;;;;;;6.80;96.17;164209.66;4987035;28;20452;-66
2022/03/27 01:59:16;;;;;;;1999.90;999.90;;;;;;;6.85;95.14;164224.78;4990552;28;20140;-67
2022/03/27 02:01:42;;;;;;;1999.90;999.90;;;;;;;7.35;93.18;164358.09;4998265;28;20108;-67
2022/03/27 02:04:09;;;;;;;1999.90;999.90;;;;;;;7.76;91.54;164468.00;4980136;28;20064;-67
2022/03/27 02:06:39;;;;;;;1999.90;999.90;;;;;;;7.89;90.32;164501.00;4999142;28;20105;-67
2022/03/27 02:09:06;;;;;;;1999.90;999.90;;;;;;;7.23;91.43;164325.06;4981777;28;20361;-67
2022/03/27 02:11:33;;;;;;;1999.90;999.90;;;;;;;7.27;90.76;164334.72;5005233;28;20116;-66
2022/03/27 02:13:59;;;;;;;1999.90;999.90;;;;;;;7.39;89.87;164369.03;5001332;28;20050;-68
2022/03/27 02:16:26;;;;;;;1999.90;999.90;;;;;;;7.35;89.38;164358.09;5008465;28;20412;-66
2022/03/27 02:18:52;;;;;;;1999.90;999.90;;;;;;;7.18;87.67;164311.34;5000784;28;20104;-65
2022/03/27 02:21:19;;;;;;;1999.90;999.90;;;;;;;6.90;88.60;164237.16;4994721;28;20089;-65
2022/03/27 02:23:45;;;;;;;1999.90;999.90;;;;;;;7.37;85.93;164363.56;5001783;28;20078;-66
2022/03/27 02:26:12;;;;;;;1999.90;999.90;;;;;;;7.52;85.41;164402.06;4996155;28;20394;-66
2022/03/27 02:28:40;;;;;;;1999.90;999.90;;;;;;;7.38;85.46;164366.31;5004253;28;20054;-67
2022/03/27 02:31:08;;;;;;;1999.90;999.90;;;;;;;6.78;87.26;164204.19;4998150;28;21203;-67
2022/03/27 02:33:35;;;;;;;1999.90;999.90;;;;;;;6.40;88.07;164102.53;5008872;28;20105;-67
2022/03/27 02:36:05;;;;;;;1999.90;999.90;;;;;;;5.95;88.58;163983.00;5008912;28;20046;-67
2022/03/27 02:38:31;;;;;;;1999.90;999.90;;;;;;;5.84;86.82;163954.19;4989337;28;20131;-67
2022/03/27 02:40:58;;;;;;;1999.90;999.90;;;;;;;5.92;85.56;163976.13;5012124;28;20089;-68
2022/03/27 02:43:24;;;;;;;1999.90;999.90;;;;;;;6.23;84.07;164058.56;4991559;28;20082;-68
2022/03/27 02:45:51;;;;;;;1999.90;999.90;;;;;;;6.32;82.38;164083.28;4996976;28;20082;-68
2022/03/27 02:48:17;;;;;;;1999.90;999.90;;;;;;;5.42;82.25;163841.66;4987389;28;20610;-68
2022/03/27 02:50:44;;;;;;;1999.90;999.90;;;;;;;5.58;81.60;163884.16;4994860;28;20058;-68
2022/03/27 02:53:12;;;;;;;1999.90;999.90;;;;;;;5.82;79.20;163950.06;5001776;28;20462;-68
2022/03/27 02:55:39;;;;;;;1999.90;999.90;;;;;;;5.61;79.99;163893.78;4997923;28;20057;-68
2022/03/27 02:58:05;;;;;;;1999.90;999.90;;;;;;;5.31;79.24;163811.44;5010073;28;20082;-67
2022/03/27 03:00:32;;;;;;;1999.90;999.90;;;;;;;5.31;79.05;163811.44;4989578;28;20058;-68
2022/03/27 03:02:59;;;;;;;1999.90;999.90;;;;;;;4.75;78.41;163664.63;5000690;28;20089;-67
2022/03/27 03:05:26;;;;;;;1999.90;999.90;;;;;;;5.14;78.12;163766.16;5004987;28;20169;-67
2022/03/27 03:07:54;;;;;;;1999.90;999.90;;;;;;;5.22;76.68;163789.44;4984996;28;20116;-68
2022/03/27 03:10:20;;;;;;;1999.90;999.90;;;;;;;5.03;76.59;163738.72;4995864;28;20387;-67
2022/03/27 03:12:47;;;;;;;1999.90;999.90;;;;;;;5.14;76.45;163767.53;4997156;28;20398;-67
2022/03/27 03:15:14;;;;;;;1999.90;999.90;;;;;;;4.98;75.67;163723.63;5003103;28;20046;-68
2022/03/27 03:17:42;;;;;;;1999.90;999.90;;;;;;;4.95;74.41;163716.75;4999443;28;20061;-68
2022/03/27 03:20:10;;;;;;;1999.90;999.90;;;;;;;4.82;75.48;163682.44;4999807;28;20042;-68
2022/03/27 03:22:40;;;;;;;1999.90;999.90;;;;;;;4.54;72.25;163608.38;4987660;28;20242;-67
2022/03/27 03:25:08;;;;;;;1999.90;999.90;;;;;;;4.19;72.89;163515.09;4985036;28;20104;-68
2022/03/27 03:27:36;;;;;;;1999.90;999.90;;;;;;;4.56;71.65;163613.84;5001161;28;20537;-67
2022/03/27 03:30:05;;;;;;;1999.90;999.90;;;;;;;4.17;72.59;163508.28;4990450;28;20438;-67
2022/03/27 03:32:31;;;;;;;1999.90;999.90;;;;;;;4.56;71.42;163613.84;5005586;28;20479;-68
2022/03/27 03:34:58;;;;;;;1999.90;999.90;;;;;;;4.56;71.40;163613.84;4988383;28;20054;-67
2022/03/27 03:37:24;;;;;;;1999.90;999.90;;;;;;;4.74;72.58;163660.50;5003663;28;20144;-68
2022/03/27 03:39:51;;;;;;;1999.90;999.90;;;;;;;4.63;71.30;163631.72;4990970;28;20054;-68
2022/03/27 03:42:17;;;;;;;1999.90;999.90;;;;;;;4.10;71.37;163489.06;4994123;28;20050;-68
2022/03/27 03:44:44;;;;;;;1999.90;999.90;;;;;;;4.50;70.28;163596.03;5003357;28;20093;-69
2022/03/27 03:47:11;;;;;;;1999.90;999.90;;;;;;;3.92;68.66;163442.44;4996020;28;20588;-68
2022/03/27 03:49:38;;;;;;;1999.90;999.90;;;;;;;3.92;69.50;163442.44;4996891;28;20057;-68
2022/03/27 03:52:06;;;;;;;1999.90;999.90;;;;;;;3.64;69.02;163367.03;4988186;28;20116;-68
2022/03/27 03:54:34;;;;;;;1999.90;999.90;;;;;;;4.07;68.52;163482.22;5001487;28;20618;-68
2022/03/27 03:57:05;;;;;;;1999.90;999.90;;;;;;;3.67;69.45;163375.28;5004084;28;20092;-68
2022/03/27 03:59:36;;;;;;;1999.90;999.90;;;;;;;3.58;69.46;163351.97;4994338;28;20510;-68
2022/03/27 04:02:08;;;;;;;1999.90;999.90;;;;;;;3.23;69.58;163257.38;5001757;28;20289;-67
2022/03/27 04:04:35;;;;;;;1999.90;999.90;;;;;;;3.47;69.83;163321.84;4984954;28;20446;-68
2022/03/27 04:07:04;;;;;;;1999.90;999.90;;;;;;;3.45;68.90;163316.31;4996166;28;20054;-68
2022/03/27 04:09:31;;;;;;;1999.90;999.90;;;;;;;3.47;67.84;163321.84;4987516;28;20069;-68
2022/03/27 04:11:57;;;;;;;1999.90;999.90;;;;;;;3.51;68.96;163334.16;4993847;28;20406;-68
2022/03/27 04:14:24;;;;;;;1999.90;999.90;;;;;;;3.16;69.92;163240.94;5007206;28;20450;-68
2022/03/27 04:16:50;;;;;;;1999.90;999.90;;;;;;;3.47;68.54;163323.19;4987715;28;20088;-66
2022/03/27 04:19:17;;;;;;;1999.90;999.90;;;;;;;3.44;68.37;163314.97;4997381;28;20053;-67
2022/03/27 04:21:43;;;;;;;1999.90;999.90;;;;;;;3.35;68.13;163290.31;4995011;28;20046;-67
2022/03/27 04:24:10;;;;;;;1999.90;999.90;;;;;;;3.99;66.63;163461.66;4991428;28;20289;-67
2022/03/27 04:26:39;;;;;;;1999.90;999.90;;;;;;;3.46;67.49;163320.44;4998214;28;20058;-66
2022/03/27 04:29:05;;;;;;;1999.90;999.90;;;;;;;3.34;68.29;163288.91;4998893;28;20102;-68
2022/03/27 04:31:32;;;;;;;1999.90;999.90;;;;;;;3.17;69.54;163242.31;4999152;28;20080;-68
2022/03/27 04:33:59;;;;;;;1999.90;999.90;;;;;;;3.33;69.17;163284.78;4986614;28;20062;-68
2022/03/27 04:36:25;;;;;;;1999.90;999.90;;;;;;;3.52;68.91;163336.88;4998991;28;20046;-68
2022/03/27 04:38:52;;;;;;;1999.90;999.90;;;;;;;3.33;68.69;163284.78;4979175;28;20491;-67
2022/03/27 04:41:18;;;;;;;1999.90;999.90;;;;;;;3.32;68.96;163282.03;5006032;28;20084;-67
2022/03/27 04:43:47;;;;;;;1999.90;999.90;;;;;;;3.24;70.12;163260.16;5000373;28;20046;-67
2022/03/27 04:46:14;;;;;;;1999.90;999.90;;;;;;;2.97;71.22;163188.88;4987815;28;20053;-69
2022/03/27 04:48:42;;;;;;;1999.90;999.90;;;;;;;3.26;70.46;163265.59;5006833;28;20058;-68
2022/03/27 04:51:09;;;;;;;1999.90;999.90;;;;;;;3.04;71.21;163208.06;4992027;28;20050;-67
2022/03/27 04:53:35;;;;;;;1999.90;999.90;;;;;;;3.03;70.67;163205.31;4996206;28;20505;-67
2022/03/27 04:56:06;;;;;;;1999.90;999.90;;;;;;;2.94;71.09;163180.66;4984390;28;20327;-67
2022/03/27 04:58:32;;;;;;;1999.90;999.90;;;;;;;3.04;71.11;163206.69;5000125;28;20478;-68
2022/03/27 05:00:59;;;;;;;1999.90;999.90;;;;;;;2.63;72.20;163098.47;4997903;28;20100;-68
2022/03/27 05:03:26;;;;;;;1999.90;999.90;;;;;;;3.02;72.21;163202.56;4986919;28;20626;-68
2022/03/27 05:05:52;;;;;;;1999.90;999.90;;;;;;;2.65;71.86;163103.97;4989860;28;20165;-67
2022/03/27 05:08:20;;;;;;;1999.90;999.90;;;;;;;2.35;73.14;163024.50;4981012;28;20116;-67
2022/03/27 05:10:47;;;;;;;1999.90;999.90;;;;;;;2.42;73.78;163043.66;4999280;28;20050;-68
2022/03/27 05:13:17;;;;;;;1999.90;999.90;;;;;;;2.70;72.52;163116.28;4988926;28;20160;-65
2022/03/27 05:15:45;;;;;;;1999.90;999.90;;;;;;;2.46;72.87;163054.63;4986772;28;20098;-66
2022/03/27 05:18:12;;;;;;;1999.90;999.90;;;;;;;2.64;73.76;163101.22;4987350;28;20127;-66
2022/03/27 05:20:40;;;;;;;1999.90;999.90;;;;;;;2.51;73.75;163066.97;4995058;28;20059;-66
2022/03/27 05:23:07;;;;;;;1999.90;999.90;;;;;;;2.16;75.08;162972.47;5001315;28;20316;-65
2022/03/27 05:25:40;;;;;;;1999.90;999.90;;;;;;;2.11;75.32;162961.53;5000300;28;20045;-67
2022/03/27 05:28:09;;;;;;;1999.90;999.90;;;;;;;2.53;74.67;163071.06;4999812;28;20058;-66
2022/03/27 05:30:36;;;;;;;1999.90;999.90;;;;;;;2.43;75.12;163046.41;5004641;28;20477;-67
2022/03/27 05:33:05;;;;;;;1999.90;999.90;;;;;;;2.18;75.25;162977.97;4998897;28;20108;-66
2022/03/27 05:35:32;;;;;;;1999.90;999.90;;;;;;;2.52;75.25;163068.38;5004630;28;20089;-66
2022/03/27 05:38:02;;;;;;;1999.90;999.90;;;;;;;2.54;74.69;163073.81;4971285;28;20054;-66
2022/03/27 05:40:29;;;;;;;1999.90;999.90;;;;;;;2.24;76.29;162995.75;4995335;28;20112;-66
2022/03/27 05:42:56;;;;;;;1999.90;999.90;;;;;;;2.13;75.62;162964.25;4985411;28;20050;-66
2022/03/27 05:45:23;;;;;;;1999.90;999.90;;;;;;;2.46;76.59;163053.28;5006795;28;20077;-67
2022/03/27 05:47:50;;;;;;;1999.90;999.90;;;;;;;2.47;75.84;163056.00;5000339;28;20082;-66
2022/03/27 05:50:19;;;;;;;1999.90;999.90;;;;;;;3.11;74.81;163227.28;4979204;28;20371;-66
2022/03/27 05:52:46;;;;;;;1999.90;999.90;;;;;;;2.66;74.98;163106.69;4999865;28;20093;-66
2022/03/27 05:55:13;;;;;;;1999.90;999.90;;;;;;;2.69;74.77;163114.91;4979878;28;20105;-66
2022/03/27 05:57:40;;;;;;;1999.90;999.90;;;;;;;3.06;74.55;163213.53;5002264;28;20103;-67
2022/03/27 06:00:09;;;;;;;1999.90;999.90;;;;;;;3.80;73.07;163410.91;4992759;28;20060;-66
2022/03/27 06:02:36;;;;;;;1999.90;999.90;;;;;;;3.05;73.68;163209.44;4995735;28;20048;-66
2022/03/27 06:05:03;;;;;;;1999.90;999.90;;;;;;;3.28;73.97;163271.13;5004994;28;20073;-67
2022/03/27 06:07:29;;;;;;;1999.90;999.90;;;;;;;3.64;72.61;163368.41;5000121;28;20143;-66
2022/03/27 06:09:56;;;;;;;1999.90;999.90;;;;;;;4.20;71.89;163517.84;4993312;28;20077;-67
2022/03/27 06:12:22;;;;;;;1999.90;999.90;;;;;;;4.72;71.00;163655.03;4982662;28;20096;-67
2022/03/27 06:14:49;;;;;;;1999.90;999.90;;;;;;;4.63;69.95;163630.31;5007984;28;20057;-67
2022/03/27 06:17:16;;;;;;;1999.90;999.90;;;;;;;4.20;71.16;163517.84;5004468;28;20190;-67
2022/03/27 06:19:42;;;;;;;1999.90;999.90;;;;;;;3.92;72.03;163441.09;4999122;28;20479;-67
2022/03/27 06:22:09;;;;;;;1999.90;999.90;;;;;;;4.11;71.63;163493.19;5001049;28;20509;-67
2022/03/27 06:24:35;;;;;;;1999.90;999.90;;;;;;;4.36;70.86;163558.97;4982067;28;20054;-67
2022/03/27 06:27:02;;;;;;;1999.90;999.90;;;;;;;3.99;71.85;163460.25;5005084;28;20085;-67
2022/03/27 06:29:28;;;;;;;1999.90;999.90;;;;;;;3.95;71.41;163450.66;4996932;28;20103;-67
2022/03/27 06:31:55;;;;;;;1999.90;999.90;;;;;;;3.84;71.47;163421.88;4995728;28;20109;-67
2022/03/27 06:34:22;;;;;;;1999.90;999.90;;;;;;;4.31;69.67;163545.28;5009353;28;20135;-67
2022/03/27 06:36:49;;;;;;;1999.90;999.90;;;;;;;3.65;70.89;163369.81;4988875;28;20085;-67
2022/03/27 06:39:15;;;;;;;1999.90;999.90;;;;;;;4.04;70.04;163474.00;4996330;28;20079;-67
2022/03/27 06:41:42;;;;;;;1999.90;999.90;;;;;;;4.07;69.70;163482.22;5000193;28;20050;-67
2022/03/27 06:44:08;;;;;;;1999.90;999.90;;;;;;;4.40;70.17;163571.31;5003627;28;20085;-67
2022/03/27 06:46:35;;;;;;;1999.90;999.90;;;;;;;5.20;67.22;163782.63;4994522;28;20062;-67
2022/03/27 06:49:01;;;;;;;1999.90;999.90;;;;;;;4.91;66.55;163707.16;5000679;28;20262;-67
2022/03/27 06:51:28;;;;;;;1999.90;999.90;;;;;;;4.52;67.46;163602.88;5003256;28;20041;-67
2022/03/27 06:53:54;;;;;;;1999.90;999.90;;;;;;;5.69;67.04;163913.03;4987309;28;20081;-67
2022/03/27 06:56:21;;;;;;;1999.90;999.90;;;;;;;6.20;64.73;164050.34;4995193;28;20089;-67
2022/03/27 06:58:47;;;;;;;1999.90;999.90;;;;;;;5.60;65.72;163891.03;4984251;28;20117;-67
2022/03/27 07:03:59;;;;;;;1999.90;999.90;;;;;;;5.59;65.20;163888.28;4997957;28;20146;-67
2022/03/27 07:06:26;;;;;;;1999.90;999.90;;;;;;;5.91;63.89;163973.41;5005608;28;20157;-67
2022/03/27 07:08:52;;;;;;;1999.90;999.90;;;;;;;6.29;63.50;164073.69;5009085;28;20423;-67
2022/03/27 07:11:19;;;;;;;1999.90;999.90;;;;;;;6.23;63.14;164058.56;4997236;28;20042;-67
2022/03/27 07:13:45;;;;;;;1999.90;999.90;;;;;;;6.45;62.89;164116.28;5008678;28;20078;-67
2022/03/27 07:16:13;;;;;;;1999.90;999.90;;;;;;;6.24;62.37;164061.34;4998511;28;20050;-67
2022/03/27 07:18:40;;;;;;;1999.90;999.90;;;;;;;6.12;64.04;164028.41;5001861;28;20046;-67
2022/03/27 07:21:06;;;;;;;1999.90;999.90;;;;;;;6.11;63.48;164025.63;4997559;28;20061;-67
2022/03/27 07:23:33;;;;;;;1999.90;999.90;;;;;;;6.22;62.36;164055.81;4996815;28;20057;-67
2022/03/27 07:26:00;;;;;;;1999.90;999.90;;;;;;;5.36;62.57;163826.53;5007953;28;20105;-66
2022/03/27 07:28:30;;;;;;;1999.90;999.90;;;;;;;6.07;62.78;164014.63;4995271;28;20479;-67
2022/03/27 07:30:58;;;;;;;1999.90;999.90;;;;;;;6.33;62.06;164086.03;5004840;28;20553;-67
2022/03/27 07:33:27;;;;;;;1999.90;999.90;;;;;;;5.93;59.94;163977.53;5004711;28;20424;-67
2022/03/27 07:35:54;;;;;;;1999.90;999.90;;;;;;;5.41;60.72;163840.25;5002821;28;20108;-67
2022/03/27 07:38:21;;;;;;;1999.90;999.90;;;;;;;6.37;59.99;164094.28;5006356;28;20172;-67
2022/03/27 07:40:47;;;;;;;1999.90;999.90;;;;;;;6.85;58.66;164223.44;4995636;28;20050;-67
2022/03/27 07:43:14;;;;;;;1999.90;999.90;;;;;;;7.13;58.46;164299.00;4996718;28;20266;-66
2022/03/27 07:45:41;;;;;;;1999.90;999.90;;;;;;;6.69;56.21;164182.19;5000191;28;20050;-66
2022/03/27 07:48:07;;;;;;;1999.90;999.90;;;;;;;6.64;56.43;164168.47;5005505;28;20506;-66
2022/03/27 07:50:34;;;;;;;1999.90;999.90;;;;;;;6.36;55.82;164092.94;4999613;28;20073;-66
2022/03/27 07:53:02;;;;;;;1999.90;999.90;;;;;;;6.56;54.61;164146.47;5005684;28;20050;-67
2022/03/27 07:55:29;;;;;;;1999.90;999.90;;;;;;;7.46;53.17;164385.53;4995171;28;20581;-67
2022/03/27 07:57:57;;;;;;;1999.90;999.90;;;;;;;7.42;52.05;164374.56;4986435;28;20254;-66
2022/03/27 08:00:24;;;;;;;1999.90;999.90;;;;;;;8.05;50.41;164545.03;4991316;28;20104;-66
2022/03/27 08:02:51;;;;;;;1999.90;999.90;;;;;;;7.73;51.17;164459.78;4982141;28;20053;-67
2022/03/27 08:05:19;;;;;;;1999.90;999.90;;;;;;;7.66;49.15;164440.50;5000857;28;20057;-66
2022/03/27 08:07:46;;;;;;;1999.90;999.90;;;;;;;8.50;47.89;164664.72;4989012;28;20470;-67
2022/03/27 08:10:15;;;;;;;1999.90;999.90;;;;;;;7.34;47.47;164355.31;4991032;28;20565;-66
2022/03/27 08:12:43;;;;;;;1999.90;999.90;;;;;;;6.67;48.47;164175.34;4995478;28;20141;-66
2022/03/27 08:15:09;;;;;;;1999.90;999.90;;;;;;;7.80;47.63;164476.25;4984181;28;20408;-67
2022/03/27 08:17:36;;;;;;;1999.90;999.90;;;;;;;8.34;48.19;164620.66;4992727;28;20089;-67
2022/03/27 08:20:04;;;;;;;1999.90;999.90;;;;;;;8.84;47.59;164754.09;4998088;28;20049;-66
2022/03/27 08:22:30;;;;;;;1999.90;999.90;;;;;;;8.65;45.18;164704.59;5001258;28;20042;-67
2022/03/27 08:24:57;;;;;;;1999.90;999.90;;;;;;;9.54;43.40;164941.22;5005995;28;20226;-67
2022/03/27 08:27:23;;;;;;;1999.90;999.90;;;;;;;10.00;39.97;165065.09;4997407;28;20042;-67
2022/03/27 08:29:51;;;;;;;1999.90;999.90;;;;;;;8.47;42.42;164656.47;5000616;28;20288;-67
2022/03/27 08:32:18;;;;;;;1999.90;999.90;;;;;;;8.91;45.88;164773.38;4985864;28;20053;-68
2022/03/27 08:34:47;;;;;;;1999.90;999.90;;;;;;;9.23;40.76;164858.66;5008045;28;20045;-66
2022/03/27 08:37:16;;;;;;;1999.90;999.90;;;;;;;9.15;39.41;164839.44;4995606;28;20038;-66
2022/03/27 08:39:45;;;;;;;1999.90;999.90;;;;;;;10.19;37.49;165116.06;5000055;28;20053;-66
2022/03/27 08:42:19;;;;;;;1999.90;999.90;;;;;;;10.28;36.84;165139.47;5006188;28;20510;-67
2022/03/27 08:44:47;;;;;;;1999.90;999.90;;;;;;;9.84;38.66;165023.81;4981171;28;20054;-67
2022/03/27 08:47:24;;;;;;;1999.90;999.90;;;;;;;11.08;37.12;165354.38;4996694;28;20501;-67
2022/03/27 08:50:11;;;;;;;1999.90;999.90;;;;;;;11.21;36.77;165390.19;5000348;28;20080;-67
2022/03/27 08:52:54;;;;;;;1999.90;999.90;;;;;;;11.17;36.34;165377.81;4997944;28;20046;-67
2022/03/27 08:55:34;;;;;;;1999.90;999.90;;;;;;;10.62;36.86;165230.41;4991256;28;20514;-67
2022/03/27 08:58:01;;;;;;;1999.90;999.90;;;;;;;11.90;36.22;165574.84;5001284;28;20155;-67
2022/03/27 09:00:29;;;;;;;1999.90;999.90;;;;;;;10.78;36.18;165274.50;4991891;28;20456;-67
2022/03/27 09:02:58;;;;;;;1999.90;999.90;;;;;;;11.63;36.24;165503.19;4991662;28;20085;-67
2022/03/27 09:05:25;;;;;;;1999.90;999.90;;;;;;;10.55;35.73;165213.91;4999407;28;20043;-67
2022/03/27 09:07:54;;;;;;;1999.90;999.90;;;;;;;11.61;34.29;165496.28;4991925;28;20085;-67
2022/03/27 09:10:22;;;;;;;1999.90;999.90;;;;;;;11.32;34.76;165417.75;5004825;28;20455;-67
2022/03/27 09:12:51;;;;;;;1999.90;999.90;;;;;;;9.79;37.28;165010.03;4995532;28;20049;-66
2022/03/27 09:15:19;;;;;;;1999.90;999.90;;;;;;;9.93;35.50;165045.81;5008367;28;20104;-67
2022/03/27 09:17:56;;;;;;;1999.90;999.90;;;;;;;10.59;33.22;165222.16;4999440;28;20104;-66
2022/03/27 09:20:53;;;;;;;1999.90;999.90;;;;;;;12.47;31.46;165726.53;5007629;28;20351;-67
2022/03/27 09:23:27;;;;;;;1999.90;999.90;;;;;;;11.48;32.75;165460.44;4998631;28;20081;-67
2022/03/27 09:25:59;;;;;;;1999.90;999.90;;;;;;;11.71;30.07;165523.84;5000811;28;20297;-66
2022/03/27 09:28:36;;;;;;;1999.90;999.90;;;;;;;10.97;31.65;165324.03;5002035;28;20092;-67
2022/03/27 09:31:05;;;;;;;1999.90;999.90;;;;;;;9.52;32.77;164938.47;4985074;28;20443;-66
2022/03/27 09:33:50;;;;;;;1999.90;999.90;;;;;;;9.63;33.91;164966.00;5000591;28;20054;-66
2022/03/27 09:36:21;;;;;;;1999.90;999.90;;;;;;;11.48;32.38;165460.44;4999306;28;20147;-68
2022/03/27 09:39:00;;;;;;;1999.90;999.90;;;;;;;12.48;31.22;165730.66;5003911;28;20046;-68
2022/03/27 09:42:00;;;;;;;1999.90;999.90;;;;;;;12.62;31.68;165767.94;4989246;28;20100;-68
2022/03/27 09:44:36;;;;;;;1999.90;999.90;;;;;;;12.07;29.87;165619.00;5000513;28;20046;-67
2022/03/27 09:47:10;;;;;;;1999.90;999.90;;;;;;;12.23;30.31;165663.09;4987148;28;20359;-67
2022/03/27 09:49:41;;;;;;;1999.90;999.90;;;;;;;12.46;28.35;165723.75;4998624;28;20056;-67
2022/03/27 09:52:14;;;;;;;1999.90;999.90;;;;;;;13.69;27.04;166054.84;4999321;28;20086;-68
2022/03/27 09:54:46;;;;;;;1999.90;999.90;;;;;;;12.96;28.32;165858.91;4983705;28;20085;-67
2022/03/27 09:57:36;;;;;;;1999.90;999.90;;;;;;;13.81;28.83;166085.22;5003815;28;20385;-67
2022/03/27 10:00:11;;;;;;;1999.90;999.90;;;;;;;13.87;27.11;166101.78;4994468;28;20053;-67
2022/03/27 10:02:39;;;;;;;1999.90;999.90;;;;;;;12.83;28.84;165823.06;4998594;28;20148;-67
2022/03/27 10:05:11;;;;;;;1999.90;999.90;;;;;;;12.61;29.37;165765.16;4992382;28;20046;-67
2022/03/27 10:07:41;;;;;;;1999.90;999.90;;;;;;;12.88;26.44;165836.88;4997373;28;20054;-68
2022/03/27 10:10:11;;;;;;;1999.90;999.90;;;;;;;12.98;30.01;165864.47;5001870;28;20112;-68
2022/03/27 10:12:39;;;;;;;1999.90;999.90;;;;;;;12.80;29.59;165814.78;4997638;28;20050;-69
2022/03/27 10:15:14;;;;;;;1999.90;999.90;;;;;;;13.50;25.92;166002.44;5000234;28;20044;-67
2022/03/27 10:17:45;;;;;;;1999.90;999.90;;;;;;;13.29;28.08;165947.19;4993558;28;20059;-67
2022/03/27 10:20:17;;;;;;;1999.90;999.90;;;;;;;13.50;28.15;166002.44;4987553;28;20088;-67
2022/03/27 10:22:46;;;;;;;1999.90;999.90;;;;;;;13.97;25.49;166129.41;4990723;28;20054;-68
2022/03/27 10:25:16;;;;;;;1999.90;999.90;;;;;;;14.69;26.78;166322.69;5004064;28;20096;-68
2022/03/27 10:27:45;;;;;;;1999.90;999.90;;;;;;;13.69;27.29;166053.50;4997908;28;20397;-68
2022/03/27 10:30:13;;;;;;;1999.90;999.90;;;;;;;14.61;25.76;166300.63;5007509;28;20447;-68
2022/03/27 10:32:42;;;;;;;1999.90;999.90;;;;;;;14.73;25.59;166333.72;4994551;28;20054;-68
2022/03/27 10:35:30;;;;;;;1999.90;999.90;;;;;;;15.81;25.10;166622.50;4988068;28;20050;-69
2022/03/27 10:38:34;;;;;;;1999.90;999.90;;;;;;;14.27;27.72;166210.81;4993426;28;20078;-68
2022/03/27 10:41:14;;;;;;;1999.90;999.90;;;;;;;15.03;26.43;166412.47;4994471;28;20170;-66
2022/03/27 10:43:59;;;;;;;1999.90;999.90;;;;;;;15.05;25.32;166419.38;5003632;28;20185;-66
2022/03/27 10:46:27;;;;;;;1999.90;999.90;;;;;;;14.49;26.85;166267.44;4994236;28;20089;-66
2022/03/27 10:49:14;;;;;;;1999.90;999.90;;;;;;;14.85;25.17;166364.13;5002926;28;20085;-66
2022/03/27 10:51:46;;;;;;;1999.90;999.90;;;;;;;13.38;25.56;165972.09;4993243;28;20100;-65
2022/03/27 10:54:19;;;;;;;1999.90;999.90;;;;;;;13.87;24.36;166101.78;5004428;28;20050;-67
2022/03/27 10:56:46;;;;;;;1999.90;999.90;;;;;;;14.26;25.88;166206.66;4997303;28;20081;-67
2022/03/27 10:59:27;;;;;;;1999.90;999.90;;;;;;;14.15;25.72;166177.69;5007391;28;20092;-67
2022/03/27 11:01:58;;;;;;;1999.90;999.90;;;;;;;15.12;26.06;166438.72;5002994;28;20443;-67
2022/03/27 11:04:38;;;;;;;1999.90;999.90;;;;;;;15.32;25.52;166491.19;4994828;28;20050;-66
2022/03/27 11:07:14;;;;;;;1999.90;999.90;;;;;;;15.37;24.28;166503.63;4990267;28;20049;-67